createdAt,value
2019-04-28T00:02:02.921Z,97457.13
2019-04-28T00:04:32.125Z,97481.06
2019-04-28T00:07:01.756Z,97481.38
2019-04-28T00:09:31.384Z,97483.38
2019-04-28T00:12:01.569Z,97486.20
2019-04-28T00:14:29.332Z,97485.34
2019-04-28T00:16:57.124Z,97481.39
2019-04-28T00:19:26.170Z,97480.22
2019-04-28T00:22:22.744Z,97484.28
2019-04-28T00:24:58.216Z,97484.03
2019-04-28T00:27:26.375Z,97476.76
2019-04-28T00:29:54.002Z,97470.56
2019-04-28T00:32:21.752Z,97454.73
2019-04-28T00:34:51.133Z,97476.68
2019-04-28T00:37:34.443Z,97483.34
2019-04-28T00:40:02.300Z,97485.89
2019-04-28T00:42:31.518Z,97476.05
2019-04-28T00:45:01.444Z,97479.08
2019-04-28T00:47:30.990Z,97483.34
2019-04-28T00:49:59.122Z,97483.17
2019-04-28T00:52:27.159Z,97495.58
2019-04-28T00:54:54.779Z,97494.58
2019-04-28T00:57:22.317Z,97497.67
2019-04-28T00:59:56.797Z,97506.05
2019-04-28T01:02:31.350Z,97512.10
2019-04-28T01:05:01.257Z,97513.42
2019-04-28T01:07:31.281Z,97502.48
2019-04-28T01:09:58.868Z,97504.66
2019-04-28T01:12:26.573Z,97516.20
2019-04-28T01:14:55.477Z,97506.50
2019-04-28T01:17:45.994Z,97497.97
2019-04-28T01:20:14.878Z,97485.11
2019-04-28T01:22:42.378Z,97480.97
2019-04-28T01:25:10.664Z,97481.48
2019-04-28T01:27:58.044Z,97482.34
2019-04-28T01:30:51.334Z,97493.66
2019-04-28T01:33:36.829Z,97487.45
2019-04-28T01:36:04.941Z,97489.46
2019-04-28T01:38:32.866Z,97481.16
2019-04-28T01:41:01.592Z,97495.05
2019-04-28T01:43:31.297Z,97490.42
2019-04-28T01:46:00.191Z,97474.96
2019-04-28T01:48:29.629Z,97499.44
2019-04-28T01:50:59.805Z,97499.44
2019-04-28T01:53:27.856Z,97497.84
2019-04-28T01:55:55.890Z,97502.95
2019-04-28T01:58:23.750Z,97495.02
2019-04-28T02:00:51.721Z,97490.59
2019-04-28T02:03:20.710Z,97497.19
2019-04-28T02:05:50.149Z,97482.08
2019-04-28T02:08:20.117Z,97481.43
2019-04-28T02:10:49.999Z,97479.91
2019-04-28T02:13:19.890Z,97481.55
2019-04-28T02:15:49.903Z,97479.25
2019-04-28T02:18:19.771Z,97482.91
2019-04-28T02:20:53.369Z,97478.42
2019-04-28T02:23:25.435Z,97474.01
2019-04-28T02:25:53.503Z,97481.53
2019-04-28T02:28:21.592Z,97482.39
2019-04-28T02:30:53.554Z,97479.22
2019-04-28T02:33:21.170Z,97473.80
2019-04-28T02:35:51.116Z,97474.27
2019-04-28T02:38:20.970Z,97473.23
2019-04-28T02:40:50.422Z,97473.27
2019-04-28T02:43:20.642Z,97473.13
2019-04-28T02:45:51.074Z,97471.62
2019-04-28T02:48:22.863Z,97471.80
2019-04-28T02:51:03.186Z,97469.69
2019-04-28T02:53:36.611Z,97476.66
2019-04-28T02:56:04.447Z,97470.16
2019-04-28T02:58:32.626Z,97476.05
2019-04-28T03:01:10.729Z,97475.33
2019-04-28T03:03:30.899Z,97479.69
2019-04-28T03:06:01.465Z,97476.25
2019-04-28T03:08:30.628Z,97470.99
2019-04-28T03:11:01.036Z,97476.63
2019-04-28T03:13:31.284Z,97474.36
2019-04-28T03:16:01.643Z,97472.03
2019-04-28T03:18:31.750Z,97474.88
2019-04-28T03:21:03.613Z,97481.06
2019-04-28T03:23:31.108Z,97476.72
2019-04-28T03:26:08.172Z,97476.88
2019-04-28T03:28:42.943Z,97487.52
2019-04-28T03:32:09.591Z,97484.39
2019-04-28T03:34:23.126Z,97495.22
2019-04-28T03:36:51.711Z,97460.17
2019-04-28T03:39:20.485Z,97489.33
2019-04-28T03:41:50.220Z,97484.69
2019-04-28T03:44:20.622Z,97487.09
2019-04-28T03:46:52.174Z,97487.16
2019-04-28T03:49:32.993Z,97491.72
2019-04-28T03:52:01.891Z,97497.25
2019-04-28T03:54:30.399Z,97502.88
2019-04-28T03:57:01.117Z,97498.70
2019-04-28T03:59:31.188Z,97505.28
2019-04-28T04:02:02.895Z,97501.44
2019-04-28T04:04:28.803Z,97478.20
2019-04-28T04:06:56.483Z,97511.77
2019-04-28T04:09:27.088Z,97519.53
2019-04-28T04:12:21.178Z,97509.48
2019-04-28T04:14:54.675Z,97514.22
2019-04-28T04:17:45.352Z,97517.91
2019-04-28T04:20:20.667Z,97517.15
2019-04-28T04:22:51.226Z,97517.77
2019-04-28T04:25:20.335Z,97524.66
2019-04-28T04:27:50.083Z,97522.41
2019-04-28T04:30:17.147Z,97523.26
2019-04-28T04:32:44.777Z,97525.04
2019-04-28T04:35:12.271Z,97518.90
2019-04-28T04:37:40.737Z,97521.67
2019-04-28T04:40:13.086Z,97526.47
2019-04-28T04:42:40.601Z,97523.10
2019-04-28T04:45:10.542Z,97529.84
2019-04-28T04:47:40.642Z,97527.30
2019-04-28T04:50:11.345Z,97536.47
2019-04-28T04:52:40.256Z,97532.44
2019-04-28T04:55:08.284Z,97528.62
2019-04-28T04:57:36.501Z,97534.97
2019-04-28T05:00:06.337Z,97534.97
2019-04-28T05:02:55.410Z,97541.73
2019-04-28T05:05:28.089Z,97533.69
2019-04-28T05:07:55.673Z,97533.69
2019-04-28T05:10:23.169Z,97539.95
2019-04-28T05:12:51.818Z,97534.48
2019-04-28T05:15:20.346Z,97544.03
2019-04-28T05:17:50.018Z,97541.16
2019-04-28T05:20:17.515Z,97534.33
2019-04-28T05:22:51.368Z,97540.70
2019-04-28T05:25:32.584Z,97537.52
2019-04-28T05:28:02.959Z,97538.59
2019-04-28T05:30:29.696Z,97539.44
2019-04-28T05:32:57.548Z,97542.94
2019-04-28T05:35:25.299Z,97544.74
2019-04-28T05:37:53.296Z,97539.30
2019-04-28T05:40:21.503Z,97547.21
2019-04-28T05:43:00.933Z,97547.47
2019-04-28T05:45:29.682Z,97546.80
2019-04-28T05:47:59.440Z,97552.34
2019-04-28T05:50:39.960Z,97551.30
2019-04-28T05:53:30.073Z,97551.41
2019-04-28T05:56:23.728Z,97556.89
2019-04-28T05:58:58.255Z,97555.80
2019-04-28T06:01:33.034Z,97552.86
2019-04-28T06:04:01.124Z,97561.87
2019-04-28T06:06:32.290Z,97568.59
2019-04-28T06:09:22.469Z,97563.48
2019-04-28T06:11:49.999Z,97572.30
2019-04-28T06:14:19.778Z,97574.33
2019-04-28T06:16:47.128Z,97580.33
2019-04-28T06:19:14.886Z,97574.95
2019-04-28T06:21:42.411Z,97579.20
2019-04-28T06:24:10.096Z,97584.92
2019-04-28T06:26:37.731Z,97581.06
2019-04-28T06:29:05.463Z,97582.16
2019-04-28T06:31:33.112Z,97575.69
2019-04-28T06:34:01.837Z,97568.06
2019-04-28T06:36:29.452Z,97577.09
2019-04-28T06:38:57.089Z,97579.95
2019-04-28T06:41:24.686Z,97575.38
2019-04-28T06:43:52.351Z,97573.56
2019-04-28T06:46:20.029Z,97576.43
2019-04-28T06:48:47.734Z,97577.57
2019-04-28T06:51:15.455Z,97577.11
2019-04-28T06:53:44.711Z,97569.48
2019-04-28T06:56:12.430Z,97574.81
2019-04-28T06:58:40.153Z,97574.67
2019-04-28T07:01:07.773Z,97574.05
2019-04-28T07:03:35.853Z,97572.49
2019-04-28T07:06:03.890Z,97572.98
2019-04-28T07:08:31.936Z,97574.67
2019-04-28T07:10:59.682Z,97558.77
2019-04-28T07:13:27.393Z,97562.06
2019-04-28T07:15:55.164Z,97586.68
2019-04-28T07:18:22.803Z,97579.50
2019-04-28T07:20:57.191Z,97581.46
2019-04-28T07:23:24.878Z,97589.20
2019-04-28T07:25:52.607Z,97592.84
2019-04-28T07:28:20.245Z,97586.06
2019-04-28T07:30:49.507Z,97589.00
2019-04-28T07:33:17.243Z,97594.69
2019-04-28T07:35:45.009Z,97591.67
2019-04-28T07:38:12.660Z,97600.87
2019-04-28T07:40:40.327Z,97600.48
2019-04-28T07:43:08.196Z,97601.22
2019-04-28T07:45:36.304Z,97603.05
2019-04-28T07:48:04.233Z,97600.00
2019-04-28T07:50:31.898Z,97601.23
2019-04-28T07:53:27.650Z,97603.43
2019-04-28T07:55:55.176Z,97601.95
2019-04-28T07:58:22.816Z,97598.94
2019-04-28T08:00:50.787Z,97597.02
2019-04-28T08:03:18.570Z,97590.94
2019-04-28T08:05:46.217Z,97593.13
2019-04-28T08:08:13.849Z,97590.55
2019-04-28T08:10:41.535Z,97584.75
2019-04-28T08:13:10.225Z,97589.45
2019-04-28T08:15:37.864Z,97595.13
2019-04-28T08:18:05.543Z,97589.91
2019-04-28T08:20:33.503Z,97594.47
2019-04-28T08:23:01.208Z,97587.31
2019-04-28T08:25:28.895Z,97590.98
2019-04-28T08:27:56.532Z,97585.13
2019-04-28T08:30:24.150Z,97581.46
2019-04-28T08:33:02.903Z,97585.11
2019-04-28T08:35:30.501Z,97565.80
2019-04-28T08:37:58.131Z,97589.53
2019-04-28T08:40:25.733Z,97587.39
2019-04-28T08:42:53.254Z,97584.99
2019-04-28T08:45:20.792Z,97590.23
2019-04-28T08:47:48.442Z,97586.67
2019-04-28T08:50:16.155Z,97586.96
2019-04-28T08:52:43.793Z,97580.81
2019-04-28T08:55:11.361Z,97582.13
2019-04-28T08:57:38.963Z,97572.69
2019-04-28T09:00:07.485Z,97590.56
2019-04-28T09:02:35.271Z,97576.75
2019-04-28T09:05:02.832Z,97579.80
2019-04-28T09:07:30.474Z,97585.17
2019-04-28T09:09:58.073Z,97584.98
2019-04-28T09:12:25.679Z,97581.73
2019-04-28T09:14:53.212Z,97582.24
2019-04-28T09:17:20.737Z,97585.10
2019-04-28T09:19:48.375Z,97589.69
2019-04-28T09:22:15.901Z,97565.46
2019-04-28T09:24:43.414Z,97576.20
2019-04-28T09:27:11.094Z,97568.95
2019-04-28T09:29:38.590Z,97581.80
2019-04-28T09:32:06.151Z,97582.02
2019-04-28T09:34:33.658Z,97572.36
2019-04-28T09:37:01.333Z,97577.37
2019-04-28T09:39:51.221Z,97576.14
2019-04-28T09:42:47.962Z,97571.47
2019-04-28T09:45:20.975Z,97580.05
2019-04-28T09:47:48.654Z,97556.16
2019-04-28T09:50:17.300Z,97564.66
2019-04-28T09:52:45.017Z,97560.05
2019-04-28T09:55:13.048Z,97568.80
2019-04-28T09:57:40.753Z,97570.03
2019-04-28T10:00:09.445Z,97562.03
2019-04-28T10:02:37.308Z,97557.81
2019-04-28T10:05:05.433Z,97555.57
2019-04-28T10:07:33.168Z,97556.05
2019-04-28T10:10:00.851Z,97561.59
2019-04-28T10:12:28.439Z,97562.84
2019-04-28T10:14:56.164Z,97558.64
2019-04-28T10:17:23.839Z,97541.70
2019-04-28T10:19:51.424Z,97555.25
2019-04-28T10:22:19.072Z,97553.56
2019-04-28T10:24:46.839Z,97551.92
2019-04-28T10:27:14.556Z,97551.66
2019-04-28T10:29:42.277Z,97542.42
2019-04-28T10:32:09.979Z,97548.47
2019-04-28T10:34:37.601Z,97529.55
2019-04-28T10:37:05.310Z,97544.67
2019-04-28T10:39:42.429Z,97537.22
2019-04-28T10:42:12.609Z,97544.48
2019-04-28T10:44:43.072Z,97544.78
2019-04-28T10:47:10.731Z,97546.56
2019-04-28T10:49:38.323Z,97542.05
2019-04-28T10:52:06.928Z,97541.64
2019-04-28T10:54:34.528Z,97534.42
2019-04-28T10:57:03.780Z,97529.34
2019-04-28T10:59:31.442Z,97527.86
2019-04-28T11:01:59.062Z,97536.00
2019-04-28T11:04:44.846Z,97538.55
2019-04-28T11:07:13.321Z,97531.90
2019-04-28T11:09:45.617Z,97540.84
2019-04-28T11:12:19.375Z,97540.94
2019-04-28T11:14:47.012Z,97535.78
2019-04-28T11:17:15.488Z,97535.20
2019-04-28T11:19:43.113Z,97529.72
2019-04-28T11:22:10.887Z,97527.77
2019-04-28T11:24:40.518Z,97523.14
2019-04-28T11:27:08.814Z,97500.41
2019-04-28T11:29:36.405Z,97513.04
2019-04-28T11:32:04.340Z,97505.77
2019-04-28T11:34:49.870Z,97493.63
2019-04-28T11:37:17.527Z,97494.84
2019-04-28T11:39:45.342Z,97495.45
2019-04-28T11:42:13.314Z,97489.61
2019-04-28T11:44:40.917Z,97485.90
2019-04-28T11:47:10.680Z,97486.61
2019-04-28T11:49:38.472Z,97489.35
2019-04-28T11:52:06.350Z,97491.84
2019-04-28T11:54:34.024Z,97490.19
2019-04-28T11:57:01.987Z,97481.48
2019-04-28T11:59:29.713Z,97474.36
2019-04-28T12:01:57.444Z,97475.02
2019-04-28T12:04:25.237Z,97462.39
2019-04-28T12:06:52.980Z,97468.73
2019-04-28T12:09:43.752Z,97471.77
2019-04-28T12:12:25.377Z,97460.38
2019-04-28T12:15:00.526Z,97469.52
2019-04-28T12:17:45.776Z,97461.02
2019-04-28T12:20:17.086Z,97447.09
2019-04-28T12:22:44.656Z,97450.24
2019-04-28T12:25:12.347Z,97455.67
2019-04-28T12:27:39.910Z,97450.23
2019-04-28T12:30:07.628Z,97443.67
2019-04-28T12:32:35.232Z,97417.97
2019-04-28T12:35:03.124Z,97430.26
2019-04-28T12:37:30.883Z,97431.23
2019-04-28T12:39:58.511Z,97429.33
2019-04-28T12:42:26.193Z,97417.66
2019-04-28T12:44:53.860Z,97421.86
2019-04-28T12:47:21.405Z,97415.71
2019-04-28T12:50:03.381Z,97412.05
2019-04-28T12:52:31.533Z,97403.24
2019-04-28T12:55:01.632Z,97413.72
2019-04-28T12:57:29.678Z,97422.89
2019-04-28T13:00:05.534Z,97414.58
2019-04-28T13:02:53.270Z,97407.75
2019-04-28T13:05:21.291Z,97403.86
2019-04-28T13:07:49.017Z,97402.36
2019-04-28T13:10:16.825Z,97400.41
2019-04-28T13:12:44.627Z,97394.22
2019-04-28T13:15:12.600Z,97383.30
2019-04-28T13:17:42.835Z,97359.76
2019-04-28T13:20:10.760Z,97381.77
2019-04-28T13:22:38.486Z,97375.01
2019-04-28T13:25:06.903Z,97374.30
2019-04-28T13:27:34.698Z,97366.61
2019-04-28T13:30:02.660Z,97360.52
2019-04-28T13:32:30.275Z,97355.44
2019-04-28T13:34:57.983Z,97355.44
2019-04-28T13:37:25.673Z,97353.05
2019-04-28T13:40:03.304Z,97345.92
2019-04-28T13:42:30.954Z,97345.92
2019-04-28T13:45:02.402Z,97340.46
2019-04-28T13:47:30.008Z,97341.20
2019-04-28T13:50:03.189Z,97331.73
2019-04-28T13:52:30.954Z,97331.73
2019-04-28T13:55:36.618Z,97327.17
2019-04-28T13:58:04.549Z,97321.80
2019-04-28T14:00:53.248Z,97316.51
2019-04-28T14:03:43.283Z,97327.62
2019-04-28T14:06:13.295Z,97316.20
2019-04-28T14:08:41.103Z,97313.86
2019-04-28T14:11:08.970Z,97308.11
2019-04-28T14:13:36.590Z,97287.06
2019-04-28T14:16:05.675Z,97309.31
2019-04-28T14:18:33.335Z,97300.17
2019-04-28T14:21:00.912Z,97300.81
2019-04-28T14:23:28.484Z,97294.44
2019-04-28T14:25:56.042Z,97295.75
2019-04-28T14:28:23.751Z,97290.73
2019-04-28T14:30:51.428Z,97287.23
2019-04-28T14:33:19.023Z,97294.48
2019-04-28T14:35:46.863Z,97286.85
2019-04-28T14:38:15.675Z,97284.31
2019-04-28T14:40:43.443Z,97283.98
2019-04-28T14:43:11.112Z,97280.08
2019-04-28T14:45:38.949Z,97276.21
2019-04-28T14:48:08.280Z,97276.63
2019-04-28T14:50:35.936Z,97276.03
2019-04-28T14:53:03.718Z,97286.33
2019-04-28T14:55:31.514Z,97278.91
2019-04-28T14:57:59.176Z,97289.25
2019-04-28T15:00:35.424Z,97290.81
2019-04-28T15:03:06.504Z,97294.36
2019-04-28T15:06:02.616Z,97290.38
2019-04-28T15:08:49.798Z,97282.31
2019-04-28T15:11:27.918Z,97287.34
2019-04-28T15:13:55.680Z,97261.27
2019-04-28T15:16:23.399Z,97266.47
2019-04-28T15:18:50.966Z,97284.18
2019-04-28T15:21:18.634Z,97292.40
2019-04-28T15:23:46.224Z,97287.86
2019-04-28T15:26:13.915Z,97288.03
2019-04-28T15:28:41.484Z,97277.95
2019-04-28T15:31:09.095Z,97292.34
2019-04-28T15:33:36.713Z,97289.05
2019-04-28T15:36:04.454Z,97291.59
2019-04-28T15:38:32.062Z,97270.50
2019-04-28T15:40:59.749Z,97284.08
2019-04-28T15:43:27.392Z,97288.81
2019-04-28T15:45:55.101Z,97285.48
2019-04-28T15:48:22.852Z,97283.59
2019-04-28T15:50:50.643Z,97277.38
2019-04-28T15:53:18.362Z,97260.17
2019-04-28T15:55:59.667Z,97273.77
2019-04-28T15:58:37.716Z,97274.28
2019-04-28T16:01:05.631Z,97276.39
2019-04-28T16:03:33.395Z,97272.50
2019-04-28T16:06:01.048Z,97278.55
2019-04-28T16:08:28.877Z,97289.58
2019-04-28T16:10:56.646Z,97276.34
2019-04-28T16:13:24.502Z,97283.62
2019-04-28T16:15:52.228Z,97284.63
2019-04-28T16:18:19.862Z,97291.68
2019-04-28T16:20:47.402Z,97286.41
2019-04-28T16:23:15.122Z,97258.30
2019-04-28T16:25:42.667Z,97280.66
2019-04-28T16:28:10.386Z,97284.23
2019-04-28T16:30:37.937Z,97256.17
2019-04-28T16:33:05.570Z,97293.53
2019-04-28T16:35:33.145Z,97296.83
2019-04-28T16:38:00.810Z,97274.45
2019-04-28T16:40:33.431Z,97310.75
2019-04-28T16:43:05.019Z,97308.16
2019-04-28T16:45:32.622Z,97317.64
2019-04-28T16:48:00.265Z,97321.57
2019-04-28T16:50:27.901Z,97324.78
2019-04-28T16:52:57.141Z,97322.67
2019-04-28T16:55:31.670Z,97324.48
2019-04-28T16:58:21.759Z,97333.30
2019-04-28T17:01:18.242Z,97325.56
2019-04-28T17:03:46.001Z,97335.55
2019-04-28T17:06:13.589Z,97335.77
2019-04-28T17:08:41.124Z,97315.41
2019-04-28T17:11:08.810Z,97344.58
2019-04-28T17:13:36.334Z,97345.86
2019-04-28T17:16:04.031Z,97345.87
2019-04-28T17:18:31.669Z,97349.02
2019-04-28T17:20:59.204Z,97345.67
2019-04-28T17:23:27.213Z,97351.17
2019-04-28T17:25:54.793Z,97354.48
2019-04-28T17:28:22.309Z,97357.80
2019-04-28T17:30:50.055Z,97355.03
2019-04-28T17:33:17.636Z,97353.64
2019-04-28T17:35:45.256Z,97365.41
2019-04-28T17:38:12.748Z,97367.16
2019-04-28T17:40:40.780Z,97375.06
2019-04-28T17:43:08.616Z,97378.68
2019-04-28T17:45:36.240Z,97386.42
2019-04-28T17:48:13.219Z,97388.13
2019-04-28T17:50:40.862Z,97388.98
2019-04-28T17:53:08.614Z,97389.00
2019-04-28T17:55:36.741Z,97391.03
2019-04-28T17:58:04.322Z,97397.81
2019-04-28T18:00:50.163Z,97400.85
2019-04-28T18:03:31.551Z,97403.78
2019-04-28T18:06:17.517Z,97403.52
2019-04-28T18:08:37.957Z,97407.86
2019-04-28T18:11:05.636Z,97418.73
2019-04-28T18:13:33.244Z,97410.59
2019-04-28T18:16:26.797Z,97418.22
2019-04-28T18:19:03.918Z,97427.89
2019-04-28T18:21:31.700Z,97427.05
2019-04-28T18:23:59.249Z,97431.53
2019-04-28T18:26:26.945Z,97403.28
2019-04-28T18:28:54.642Z,97437.91
2019-04-28T18:31:36.479Z,97440.20
2019-04-28T18:34:22.443Z,97445.77
2019-04-28T18:37:03.343Z,97446.14
2019-04-28T18:39:56.670Z,97449.88
2019-04-28T18:42:50.919Z,97455.22
2019-04-28T18:45:18.679Z,97453.41
2019-04-28T18:47:46.281Z,97461.77
2019-04-28T18:50:14.235Z,97463.48
2019-04-28T18:52:41.796Z,97465.06
2019-04-28T18:55:09.567Z,97472.66
2019-04-28T18:57:37.248Z,97471.27
2019-04-28T19:00:05.704Z,97476.47
2019-04-28T19:02:45.602Z,97477.92
2019-04-28T19:05:13.458Z,97488.67
2019-04-28T19:08:15.379Z,97485.54
2019-04-28T19:11:06.579Z,97496.58
2019-04-28T19:13:37.989Z,97500.36
2019-04-28T19:16:43.075Z,97507.30
2019-04-28T19:19:11.605Z,97513.92
2019-04-28T19:21:41.581Z,97506.52
2019-04-28T19:24:09.188Z,97515.63
2019-04-28T19:26:36.845Z,97516.81
2019-04-28T19:29:04.447Z,97532.43
2019-04-28T19:31:32.117Z,97527.53
2019-04-28T19:33:59.733Z,97527.31
2019-04-28T19:36:27.853Z,97533.08
2019-04-28T19:39:02.900Z,97539.11
2019-04-28T19:41:25.159Z,97538.39
2019-04-28T19:43:52.813Z,97546.45
2019-04-28T19:46:20.599Z,97550.12
2019-04-28T19:48:48.260Z,97550.88
2019-04-28T19:51:30.833Z,97560.91
2019-04-28T19:53:47.516Z,97554.45
2019-04-28T19:56:29.162Z,97552.72
2019-04-28T19:59:03.074Z,97551.80
2019-04-28T20:01:30.958Z,97553.78
2019-04-28T20:03:58.634Z,97555.45
2019-04-28T20:06:26.463Z,97564.89
2019-04-28T20:08:54.261Z,97560.19
2019-04-28T20:11:22.121Z,97562.09
2019-04-28T20:13:49.864Z,97561.52
2019-04-28T20:16:17.618Z,97568.69
2019-04-28T20:18:45.298Z,97566.45
2019-04-28T20:21:13.097Z,97563.91
2019-04-28T20:23:40.964Z,97568.47
2019-04-28T20:26:08.670Z,97562.68
2019-04-28T20:28:36.673Z,97565.19
2019-04-28T20:31:04.548Z,97570.51
2019-04-28T20:33:32.418Z,97572.30
2019-04-28T20:36:07.562Z,97568.11
2019-04-28T20:38:35.239Z,97568.68
2019-04-28T20:41:11.817Z,97573.27
2019-04-28T20:43:39.667Z,97571.40
2019-04-28T20:46:07.494Z,97571.50
2019-04-28T20:48:35.181Z,97566.02
2019-04-28T20:51:03.126Z,97573.66
2019-04-28T20:53:30.905Z,97569.47
2019-04-28T20:55:58.778Z,97550.88
2019-04-28T20:58:26.517Z,97566.77
2019-04-28T21:00:54.525Z,97583.56
2019-04-28T21:03:22.291Z,97573.70
2019-04-28T21:05:50.053Z,97576.73
2019-04-28T21:08:17.779Z,97577.87
2019-04-28T21:10:45.650Z,97579.38
2019-04-28T21:13:14.499Z,97576.45
2019-04-28T21:15:42.238Z,97574.15
2019-04-28T21:18:11.073Z,97585.47
2019-04-28T21:20:40.150Z,97564.42
2019-04-28T21:23:08.188Z,97572.28
2019-04-28T21:25:36.927Z,97569.95
2019-04-28T21:28:05.236Z,97571.38
2019-04-28T21:30:33.241Z,97579.23
2019-04-28T21:33:00.982Z,97572.68
2019-04-28T21:35:28.734Z,97574.48
2019-04-28T21:37:56.551Z,97573.35
2019-04-28T21:40:24.885Z,97566.84
2019-04-28T21:43:10.718Z,97568.66
2019-04-28T21:46:00.693Z,97565.41
2019-04-28T21:48:49.802Z,97566.67
2019-04-28T21:51:17.479Z,97567.71
2019-04-28T21:53:45.183Z,97572.16
2019-04-28T21:56:12.861Z,97573.70
2019-04-28T21:58:41.103Z,97573.02
2019-04-28T22:01:12.325Z,97568.66
2019-04-28T22:03:40.385Z,97572.28
2019-04-28T22:06:08.390Z,97566.14
2019-04-28T22:08:36.404Z,97564.52
2019-04-28T22:11:04.410Z,97565.84
2019-04-28T22:13:32.472Z,97561.86
2019-04-28T22:16:00.226Z,97562.13
2019-04-28T22:18:27.999Z,97557.64
2019-04-28T22:20:56.963Z,97559.77
2019-04-28T22:23:31.430Z,97555.58
2019-04-28T22:25:59.313Z,97560.28
2019-04-28T22:28:27.019Z,97561.03
2019-04-28T22:30:54.795Z,97564.44
2019-04-28T22:33:22.568Z,97561.10
2019-04-28T22:35:50.495Z,97563.27
2019-04-28T22:38:18.186Z,97565.14
2019-04-28T22:40:46.034Z,97555.80
2019-04-28T22:43:13.745Z,97553.31
2019-04-28T22:45:42.479Z,97557.89
2019-04-28T22:48:12.887Z,97548.16
2019-04-28T22:50:44.090Z,97553.45
2019-04-28T22:53:13.213Z,97553.23
2019-04-28T22:55:50.441Z,97545.70
2019-04-28T22:58:44.008Z,97547.47
2019-04-28T23:01:40.527Z,97546.70
2019-04-28T23:04:30.911Z,97540.86
2019-04-28T23:06:58.634Z,97547.37
2019-04-28T23:09:26.574Z,97549.94
2019-04-28T23:11:54.306Z,97540.47
2019-04-28T23:14:21.891Z,97533.76
2019-04-28T23:16:49.507Z,97537.80
2019-04-28T23:19:19.303Z,97535.80
2019-04-28T23:22:09.659Z,97537.69
2019-04-28T23:24:37.255Z,97536.52
2019-04-28T23:27:07.084Z,97544.81
2019-04-28T23:29:34.741Z,97538.11
2019-04-28T23:32:02.735Z,97533.87
2019-04-28T23:34:30.329Z,97534.06
2019-04-28T23:36:58.087Z,97527.79
2019-04-28T23:39:25.875Z,97531.95
2019-04-28T23:42:01.724Z,97524.37
2019-04-28T23:44:29.421Z,97517.45
2019-04-28T23:46:58.289Z,97514.32
2019-04-28T23:49:26.909Z,97517.13
2019-04-28T23:52:04.325Z,97517.77
2019-04-28T23:54:32.431Z,97509.16
2019-04-28T23:57:00.172Z,97510.58
2019-04-28T23:59:28.044Z,97501.79
